Time;durP1;ratioP1;P1;durP2;ratioP2;P2;SDS_P1;SDS_P2;PMS_P1;PMS_P2;Temp;Humidity;BMP_temperature;BMP_pressure;BME280_temperature;BME280_humidity;BME280_pressure;Samples;Min_cycle;Max_cycle;Signal;HPM_P1;HPM_P2
2023/07/23 00:01:57;;;;;;;10.38;7.53;;;16.20;99.90;;;;;;5034068;28;20328;-93
2023/07/23 00:04:23;;;;;;;8.77;6.60;;;16.30;99.90;;;;;;5035210;28;20171;-95
2023/07/23 00:06:51;;;;;;;10.13;7.10;;;16.30;99.90;;;;;;5034213;28;20675;-94
2023/07/23 00:09:17;;;;;;;8.85;7.15;;;16.20;99.90;;;;;;5034318;28;20242;-95
2023/07/23 00:11:42;;;;;;;10.55;7.97;;;16.20;99.90;;;;;;5033754;28;20609;-92
2023/07/23 00:14:08;;;;;;;8.77;7.68;;;16.20;99.90;;;;;;5033937;28;20175;-93
2023/07/23 00:16:36;;;;;;;8.18;7.03;;;16.20;99.90;;;;;;5034070;28;20210;-93
2023/07/23 00:19:02;;;;;;;10.27;8.02;;;16.20;99.90;;;;;;5034360;28;20170;-92
2023/07/23 00:21:28;;;;;;;10.90;7.85;;;16.20;99.90;;;;;;5033904;28;20265;-91
2023/07/23 00:23:54;;;;;;;8.68;7.07;;;16.20;99.90;;;;;;5030953;28;20221;-90
2023/07/23 00:26:19;;;;;;;8.80;7.68;;;16.20;99.90;;;;;;5014033;28;20647;-90
2023/07/23 00:28:48;;;;;;;7.85;6.30;;;16.20;99.90;;;;;;5013878;28;20171;-92
2023/07/23 00:31:14;;;;;;;9.02;6.93;;;16.20;99.90;;;;;;5013964;28;20298;-90
2023/07/23 00:33:40;;;;;;;9.48;7.60;;;16.20;99.90;;;;;;5013769;28;20589;-90
2023/07/23 00:36:06;;;;;;;8.05;6.70;;;16.20;99.90;;;;;;5013739;28;20617;-90
2023/07/23 00:38:33;;;;;;;9.32;7.38;;;16.20;99.90;;;;;;5014214;28;20190;-89
2023/07/23 00:40:59;;;;;;;9.70;7.40;;;16.20;99.90;;;;;;5013829;28;20266;-90
2023/07/23 00:43:25;;;;;;;8.32;7.47;;;16.10;99.90;;;;;;5013147;28;20270;-91
2023/07/23 00:45:51;;;;;;;13.35;7.05;;;16.10;99.90;;;;;;5013266;28;20175;-89
2023/07/23 00:48:18;;;;;;;14.88;7.75;;;16.20;99.90;;;;;;5013646;28;20183;-89
2023/07/23 00:50:44;;;;;;;8.93;7.70;;;16.20;99.90;;;;;;5014814;28;20207;-91
2023/07/23 00:53:09;;;;;;;10.27;7.82;;;16.10;99.90;;;;;;5014977;28;20314;-90
2023/07/23 00:55:35;;;;;;;9.50;7.25;;;16.10;99.90;;;;;;5030240;28;20238;-89
2023/07/23 00:58:02;;;;;;;8.85;7.25;;;16.10;99.90;;;;;;5036792;28;20193;-89
2023/07/23 01:00:27;;;;;;;8.70;7.50;;;16.10;99.90;;;;;;5037885;28;20190;-87
2023/07/23 01:02:53;;;;;;;8.88;7.28;;;16.10;99.90;;;;;;5036502;28;20182;-88
2023/07/23 01:05:19;;;;;;;10.57;7.95;;;16.10;99.90;;;;;;5036484;28;20178;-88
2023/07/23 01:07:48;;;;;;;10.48;8.25;;;16.10;99.90;;;;;;5036758;28;20236;-88
2023/07/23 01:10:13;;;;;;;9.90;7.43;;;16.10;99.90;;;;;;5036233;28;20199;-87
2023/07/23 01:12:40;;;;;;;8.75;7.85;;;16.10;99.90;;;;;;5036324;28;20205;-88
2023/07/23 01:15:07;;;;;;;11.30;7.90;;;16.10;99.90;;;;;;5036163;28;20175;-89
2023/07/23 01:17:37;;;;;;;12.40;8.45;;;15.90;99.90;;;;;;5036568;28;20185;-89
2023/07/23 01:20:05;;;;;;;12.90;8.45;;;16.00;99.90;;;;;;5036509;28;20512;-88
2023/07/23 01:22:35;;;;;;;12.23;8.27;;;15.90;99.90;;;;;;5019457;28;20182;-89
2023/07/23 01:25:03;;;;;;;10.07;7.47;;;15.90;99.90;;;;;;5025571;28;20175;-89
2023/07/23 01:27:29;;;;;;;10.85;8.50;;;15.90;99.90;;;;;;5016504;28;20183;-88
2023/07/23 01:29:54;;;;;;;9.43;7.70;;;15.90;99.90;;;;;;5016628;28;20190;-88
2023/07/23 01:32:20;;;;;;;10.20;8.38;;;15.90;99.90;;;;;;5016222;28;20194;-88
2023/07/23 01:34:46;;;;;;;10.15;8.18;;;15.90;99.90;;;;;;5016306;28;20306;-88
2023/07/23 01:37:12;;;;;;;10.40;7.72;;;15.90;99.90;;;;;;5016648;28;20206;-88
2023/07/23 01:39:39;;;;;;;8.68;7.70;;;15.90;99.90;;;;;;5017667;28;20538;-89
2023/07/23 01:42:09;;;;;;;10.77;8.30;;;15.90;99.90;;;;;;5015835;28;20183;-86
2023/07/23 01:44:35;;;;;;;9.82;8.73;;;15.90;99.90;;;;;;5016224;28;20267;-88
2023/07/23 01:47:01;;;;;;;10.82;8.20;;;15.90;99.90;;;;;;5015813;28;20187;-88
2023/07/23 01:49:27;;;;;;;12.02;8.88;;;15.90;99.90;;;;;;5015914;28;20179;-87
2023/07/23 01:51:52;;;;;;;11.05;8.23;;;15.90;99.90;;;;;;5015664;28;20203;-87
2023/07/23 01:54:18;;;;;;;9.93;8.07;;;15.80;99.90;;;;;;5021877;28;20520;-88
2023/07/23 01:56:43;;;;;;;10.63;8.20;;;15.80;99.90;;;;;;5035185;28;20595;-89
2023/07/23 01:59:10;;;;;;;11.77;8.40;;;15.80;99.90;;;;;;5035234;28;20636;-87
2023/07/23 02:01:36;;;;;;;12.80;8.65;;;15.80;99.90;;;;;;5036285;28;20198;-87
2023/07/23 02:04:01;;;;;;;11.02;8.50;;;15.80;99.90;;;;;;5035138;28;20183;-87
2023/07/23 02:06:27;;;;;;;12.27;8.77;;;15.80;99.90;;;;;;5035137;28;20175;-86
2023/07/23 02:08:53;;;;;;;9.65;8.48;;;15.80;99.90;;;;;;5034225;28;20211;-85
2023/07/23 02:11:18;;;;;;;10.48;8.55;;;15.80;99.90;;;;;;5034608;28;20214;-88
2023/07/23 02:13:44;;;;;;;11.73;8.55;;;15.80;99.90;;;;;;5035021;28;20179;-87
2023/07/23 02:16:19;;;;;;;10.48;9.32;;;15.80;99.90;;;;;;5034909;28;20273;-87
2023/07/23 02:18:48;;;;;;;10.73;8.93;;;15.80;99.90;;;;;;5034987;28;20174;-87
2023/07/23 02:21:14;;;;;;;9.88;8.40;;;15.80;99.90;;;;;;5034691;28;20232;-87
2023/07/23 02:23:39;;;;;;;11.05;8.43;;;15.80;99.90;;;;;;5034701;28;20183;-86
2023/07/23 02:26:05;;;;;;;12.38;8.68;;;15.70;99.90;;;;;;5014631;28;20183;-87
2023/07/23 02:28:31;;;;;;;11.45;8.55;;;15.70;99.90;;;;;;5015293;28;20607;-88
2023/07/23 02:31:00;;;;;;;10.45;8.88;;;15.70;99.90;;;;;;5016055;28;20195;-88
2023/07/23 02:33:26;;;;;;;10.48;8.20;;;15.70;99.90;;;;;;5014780;28;20186;-87
2023/07/23 02:35:52;;;;;;;10.60;8.73;;;15.70;99.90;;;;;;5014411;28;20183;-87
2023/07/23 02:38:19;;;;;;;13.02;8.65;;;15.70;99.90;;;;;;5014884;28;20182;-88
2023/07/23 02:40:44;;;;;;;13.13;8.75;;;15.70;99.90;;;;;;5014535;28;20258;-87
2023/07/23 02:43:12;;;;;;;11.40;8.10;;;15.70;99.90;;;;;;5014529;28;20310;-87
2023/07/23 02:45:39;;;;;;;9.75;8.02;;;15.70;99.90;;;;;;5014643;28;20614;-87
2023/07/23 02:48:07;;;;;;;11.85;8.40;;;15.70;99.90;;;;;;5014649;28;20233;-86
2023/07/23 02:50:32;;;;;;;9.48;7.97;;;15.70;99.90;;;;;;5014338;28;20362;-87
2023/07/23 02:52:58;;;;;;;11.07;8.57;;;15.70;99.90;;;;;;5014039;28;20614;-89
2023/07/23 02:55:25;;;;;;;10.63;8.27;;;15.70;99.90;;;;;;5029143;28;20240;-87
2023/07/23 02:57:52;;;;;;;13.60;7.90;;;15.70;99.90;;;;;;5035470;28;20189;-89
2023/07/23 03:00:20;;;;;;;10.13;8.40;;;15.70;99.90;;;;;;5034391;28;20198;-88
2023/07/23 03:02:47;;;;;;;9.48;7.60;;;15.70;99.90;;;;;;5034666;28;20515;-88
2023/07/23 03:05:13;;;;;;;11.88;8.43;;;15.70;99.90;;;;;;5033613;28;20234;-88
2023/07/23 03:07:39;;;;;;;12.65;8.23;;;15.70;99.90;;;;;;5034313;28;20182;-88
2023/07/23 03:10:06;;;;;;;12.27;8.93;;;15.70;99.90;;;;;;5033717;28;20178;-89
2023/07/23 03:12:33;;;;;;;10.45;8.50;;;15.70;99.90;;;;;;5034918;28;20186;-88
2023/07/23 03:14:59;;;;;;;9.13;7.78;;;15.60;99.90;;;;;;5033860;28;20235;-88
2023/07/23 03:17:25;;;;;;;11.13;8.52;;;15.60;99.90;;;;;;5034222;28;20241;-87
2023/07/23 03:19:51;;;;;;;11.27;7.82;;;15.60;99.90;;;;;;5033739;28;20525;-86
2023/07/23 03:22:17;;;;;;;11.77;8.38;;;15.60;99.90;;;;;;5033851;28;20179;-87
2023/07/23 03:24:42;;;;;;;9.98;7.85;;;15.60;99.90;;;;;;5033647;28;20492;-86
2023/07/23 03:27:08;;;;;;;10.55;8.00;;;15.60;99.90;;;;;;5033434;28;20214;-89
2023/07/23 03:29:34;;;;;;;12.02;7.85;;;15.60;99.90;;;;;;5033642;28;20182;-86
2023/07/23 03:32:00;;;;;;;10.82;8.10;;;15.60;99.90;;;;;;5033441;28;20203;-88
2023/07/23 03:34:26;;;;;;;9.93;7.82;;;15.60;99.90;;;;;;5029728;28;20210;-88
2023/07/23 03:36:52;;;;;;;11.30;8.45;;;15.60;99.90;;;;;;5015086;28;20512;-88
2023/07/23 03:39:18;;;;;;;10.93;8.18;;;15.60;99.90;;;;;;5013606;28;20199;-89
2023/07/23 03:41:47;;;;;;;12.90;7.75;;;15.60;99.90;;;;;;5014600;28;20164;-89
2023/07/23 03:44:13;;;;;;;13.27;7.80;;;15.60;99.90;;;;;;5013772;28;20179;-88
2023/07/23 03:47:04;;;;;;;11.48;7.88;;;15.60;99.90;;;;;;5013801;28;20254;-89
2023/07/23 03:49:31;;;;;;;9.75;7.95;;;15.60;99.90;;;;;;5013546;28;20547;-90
2023/07/23 03:51:58;;;;;;;11.07;8.05;;;15.50;99.90;;;;;;5013718;28;20321;-87
2023/07/23 03:54:24;;;;;;;11.45;8.45;;;15.50;99.90;;;;;;5014032;28;20183;-90
2023/07/23 03:56:50;;;;;;;10.93;8.63;;;15.60;99.90;;;;;;5013483;28;20276;-86
2023/07/23 03:59:15;;;;;;;12.35;8.38;;;15.60;99.90;;;;;;5014117;28;20175;-88
2023/07/23 04:01:41;;;;;;;11.88;8.65;;;15.60;99.90;;;;;;5014310;28;20173;-88
2023/07/23 04:04:06;;;;;;;12.32;8.52;;;15.60;99.90;;;;;;5015108;28;20621;-89
2023/07/23 04:06:32;;;;;;;11.60;8.48;;;15.60;99.90;;;;;;5033457;28;20197;-88
2023/07/23 04:08:58;;;;;;;11.57;7.93;;;15.60;99.90;;;;;;5033350;28;20312;-88
2023/07/23 04:11:23;;;;;;;12.15;7.93;;;15.60;99.90;;;;;;5032737;28;20214;-87
2023/07/23 04:13:50;;;;;;;11.35;7.82;;;15.60;99.90;;;;;;5033118;28;20174;-86
2023/07/23 04:16:16;;;;;;;10.85;8.15;;;15.60;99.90;;;;;;5033081;28;20221;-86
2023/07/23 04:18:46;;;;;;;10.63;7.70;;;15.60;99.90;;;;;;5033093;28;20613;-87
2023/07/23 04:21:13;;;;;;;11.70;8.05;;;15.60;99.90;;;;;;5033135;28;20225;-88
2023/07/23 04:23:39;;;;;;;11.00;7.72;;;15.70;99.90;;;;;;5032729;28;20676;-88
2023/07/23 04:26:04;;;;;;;11.68;8.38;;;15.60;99.90;;;;;;5032807;28;20202;-88
2023/07/23 04:28:30;;;;;;;10.00;8.15;;;15.70;99.90;;;;;;5033127;28;20201;-88
2023/07/23 04:30:56;;;;;;;10.55;7.75;;;15.70;99.90;;;;;;5035340;28;20233;-87
2023/07/23 04:33:21;;;;;;;12.60;8.20;;;15.70;99.90;;;;;;5037252;28;20224;-90
2023/07/23 04:35:47;;;;;;;11.45;8.30;;;15.70;99.90;;;;;;5037987;28;20182;-88
2023/07/23 04:38:13;;;;;;;11.00;8.32;;;15.70;99.90;;;;;;5038162;28;20206;-88
2023/07/23 04:40:38;;;;;;;13.25;8.10;;;15.70;99.90;;;;;;5036529;28;20671;-88
2023/07/23 04:43:04;;;;;;;10.80;7.55;;;15.80;99.90;;;;;;5036796;28;20181;-87
2023/07/23 04:45:30;;;;;;;11.05;8.05;;;15.80;99.90;;;;;;5038097;28;20173;-89
2023/07/23 04:47:56;;;;;;;13.02;7.85;;;15.80;99.90;;;;;;5036714;28;20563;-88
2023/07/23 04:50:24;;;;;;;10.90;8.10;;;15.90;99.90;;;;;;5036330;28;20249;-89
2023/07/23 04:52:49;;;;;;;11.30;7.45;;;15.90;99.90;;;;;;5036622;28;20206;-87
2023/07/23 04:55:15;;;;;;;15.43;7.60;;;15.90;99.90;;;;;;5036204;28;20230;-89
2023/07/23 04:57:41;;;;;;;9.32;7.28;;;15.90;99.90;;;;;;5036307;28;20178;-87
2023/07/23 05:00:09;;;;;;;8.60;6.53;;;16.00;99.90;;;;;;5036547;28;20178;-87
2023/07/23 05:02:34;;;;;;;13.85;7.45;;;16.00;99.90;;;;;;5036378;28;20189;-88
2023/07/23 05:05:00;;;;;;;13.55;7.50;;;15.90;99.90;;;;;;5036370;28;20265;-89
2023/07/23 05:07:25;;;;;;;9.57;6.70;;;16.00;99.90;;;;;;5037396;28;20259;-87
2023/07/23 05:09:52;;;;;;;10.10;6.60;;;16.00;99.90;;;;;;5036333;28;20179;-88
2023/07/23 05:12:18;;;;;;;11.73;7.18;;;16.00;99.90;;;;;;5036245;28;20714;-89
2023/07/23 05:14:47;;;;;;;10.73;6.32;;;16.00;99.90;;;;;;5036548;28;20230;-89
2023/07/23 05:17:13;;;;;;;10.05;6.50;;;16.10;99.90;;;;;;5036515;28;20179;-88
2023/07/23 05:19:39;;;;;;;11.98;6.78;;;16.20;99.90;;;;;;5036155;28;20181;-87
2023/07/23 05:22:06;;;;;;;10.93;6.60;;;16.20;99.90;;;;;;5036505;28;20174;-88
2023/07/23 05:24:32;;;;;;;9.68;6.93;;;16.20;99.90;;;;;;5035848;28;20182;-90
2023/07/23 05:26:58;;;;;;;9.93;6.50;;;16.20;99.90;;;;;;5035502;28;20516;-89
2023/07/23 05:29:24;;;;;;;11.52;6.55;;;16.20;99.90;;;;;;5035949;28;20183;-90
2023/07/23 05:31:50;;;;;;;12.77;6.50;;;16.20;99.90;;;;;;5036305;28;20225;-88
2023/07/23 05:34:16;;;;;;;9.48;6.45;;;16.20;99.90;;;;;;5033512;28;20186;-89
2023/07/23 05:36:42;;;;;;;10.15;6.68;;;16.20;99.90;;;;;;5016654;28;20702;-89
2023/07/23 05:39:09;;;;;;;10.88;6.47;;;16.30;99.90;;;;;;5016286;28;20179;-90
2023/07/23 05:41:35;;;;;;;13.48;6.88;;;16.30;99.90;;;;;;5032858;28;20199;-88
2023/07/23 05:44:00;;;;;;;8.63;5.65;;;16.40;99.90;;;;;;5015471;28;20176;-87
2023/07/23 05:46:26;;;;;;;9.82;6.47;;;16.50;99.90;;;;;;5016536;28;20302;-88
2023/07/23 05:48:52;;;;;;;8.93;5.97;;;16.50;99.90;;;;;;5017423;28;20614;-89
2023/07/23 05:51:23;;;;;;;10.07;6.47;;;16.50;99.90;;;;;;5003041;28;20218;-88
2023/07/23 05:53:49;;;;;;;8.65;6.10;;;16.60;99.90;;;;;;5015355;28;20186;-86
2023/07/23 05:56:15;;;;;;;10.80;6.10;;;16.60;99.90;;;;;;5015765;28;20227;-88
2023/07/23 05:58:40;;;;;;;9.43;6.35;;;16.60;99.90;;;;;;5016150;28;20614;-88
2023/07/23 06:01:08;;;;;;;13.30;6.78;;;16.70;99.90;;;;;;5017007;28;20649;-88
2023/07/23 06:03:34;;;;;;;9.18;5.65;;;16.60;99.90;;;;;;5015986;28;20219;-89
2023/07/23 06:05:59;;;;;;;10.68;5.93;;;16.60;99.90;;;;;;5030817;28;20190;-89
2023/07/23 06:08:25;;;;;;;8.07;6.40;;;16.60;99.90;;;;;;5035719;28;20694;-88
2023/07/23 06:10:52;;;;;;;9.13;5.88;;;16.60;99.90;;;;;;5035633;28;20216;-88
2023/07/23 06:13:17;;;;;;;7.43;5.53;;;16.60;99.90;;;;;;5035520;28;20171;-90
2023/07/23 06:15:43;;;;;;;8.77;5.60;;;16.60;99.90;;;;;;5035881;28;20312;-90
2023/07/23 06:18:09;;;;;;;8.27;5.10;;;16.60;99.90;;;;;;5035588;28;20262;-89
2023/07/23 06:20:41;;;;;;;9.95;5.80;;;16.70;99.90;;;;;;5035177;28;20179;-88
2023/07/23 06:23:07;;;;;;;9.80;5.60;;;16.70;99.90;;;;;;5035522;28;20512;-89
2023/07/23 06:25:33;;;;;;;8.63;5.97;;;16.70;99.90;;;;;;5036567;28;20175;-89
2023/07/23 06:27:59;;;;;;;10.50;6.05;;;16.80;99.90;;;;;;5035396;28;20185;-89
2023/07/23 06:30:25;;;;;;;9.50;5.53;;;16.80;99.90;;;;;;5030556;28;20218;-89
2023/07/23 06:32:51;;;;;;;10.60;5.88;;;16.80;99.90;;;;;;5015604;28;20172;-88
2023/07/23 06:35:17;;;;;;;8.10;5.75;;;16.90;99.90;;;;;;5026235;28;20583;-91
2023/07/23 06:37:43;;;;;;;10.45;5.45;;;16.90;99.90;;;;;;5035273;28;20198;-90
2023/07/23 06:40:11;;;;;;;8.93;5.53;;;17.00;99.90;;;;;;5035006;28;20245;-90
2023/07/23 06:42:36;;;;;;;8.18;5.65;;;17.10;99.90;;;;;;5036069;28;20285;-89
2023/07/23 06:45:07;;;;;;;7.07;5.80;;;17.10;99.90;;;;;;5004385;28;20632;-88
2023/07/23 06:47:32;;;;;;;8.27;5.03;;;17.20;99.90;;;;;;4999529;28;20279;-90
2023/07/23 06:49:58;;;;;;;8.60;5.25;;;17.20;99.90;;;;;;5001121;28;20203;-87
2023/07/23 06:52:24;;;;;;;6.57;5.15;;;17.30;99.90;;;;;;4995331;28;20310;-89
2023/07/23 06:54:49;;;;;;;8.05;5.53;;;17.40;99.90;;;;;;4996106;28;20171;-89
2023/07/23 06:57:15;;;;;;;8.38;4.80;;;17.50;99.90;;;;;;4995448;28;20242;-90
2023/07/23 06:59:40;;;;;;;7.57;5.00;;;17.60;99.90;;;;;;4995415;28;20172;-90
2023/07/23 07:02:09;;;;;;;7.30;5.40;;;17.70;99.90;;;;;;4995317;28;20184;-89
2023/07/23 07:04:35;;;;;;;8.15;4.95;;;17.80;99.90;;;;;;5003388;28;20269;-90
2023/07/23 07:07:01;;;;;;;9.73;4.97;;;17.90;99.90;;;;;;5034310;28;20277;-88
2023/07/23 07:09:26;;;;;;;7.72;4.63;;;17.90;99.90;;;;;;5024687;28;20311;-89
2023/07/23 07:11:55;;;;;;;8.82;5.10;;;18.00;99.90;;;;;;5010320;28;20222;-89
2023/07/23 07:14:21;;;;;;;6.63;4.70;;;18.30;99.90;;;;;;5015135;28;20262;-91
2023/07/23 07:16:47;;;;;;;7.95;5.10;;;18.50;99.90;;;;;;5014575;28;20641;-88
2023/07/23 07:19:13;;;;;;;8.07;4.80;;;18.60;99.90;;;;;;5014364;28;20262;-88
2023/07/23 07:21:43;;;;;;;7.68;4.20;;;18.70;99.90;;;;;;5013548;28;20610;-88
2023/07/23 07:24:09;;;;;;;7.07;5.03;;;19.00;99.90;;;;;;5014012;28;20633;-87
2023/07/23 07:26:34;;;;;;;9.18;4.78;;;19.00;99.90;;;;;;5014069;28;20183;-86
2023/07/23 07:29:00;;;;;;;6.57;4.32;;;19.10;99.90;;;;;;5014040;28;20266;-87
2023/07/23 07:31:26;;;;;;;4.63;4.15;;;19.10;99.90;;;;;;5013464;28;20578;-86
2023/07/23 07:33:53;;;;;;;4.80;4.30;;;19.10;99.90;;;;;;5013587;28;20211;-86
2023/07/23 07:36:19;;;;;;;5.22;4.55;;;19.00;99.90;;;;;;5031067;28;20193;-88
2023/07/23 07:38:45;;;;;;;10.40;4.53;;;19.00;99.90;;;;;;5033276;28;20201;-84
2023/07/23 07:41:10;;;;;;;5.45;4.20;;;19.10;99.90;;;;;;5008249;28;20610;-85
2023/07/23 07:43:36;;;;;;;6.55;4.47;;;19.10;99.90;;;;;;5002457;28;20164;-85
2023/07/23 07:46:05;;;;;;;8.15;4.25;;;19.20;99.90;;;;;;5005141;28;20230;-84
2023/07/23 07:48:31;;;;;;;6.13;4.30;;;19.40;99.90;;;;;;5002033;28;20573;-87
2023/07/23 07:50:59;;;;;;;7.55;4.00;;;19.50;99.90;;;;;;5010895;28;20230;-84
2023/07/23 07:53:25;;;;;;;6.00;3.97;;;19.60;99.90;;;;;;5014277;28;20163;-94
2023/07/23 07:55:51;;;;;;;5.38;4.00;;;19.60;99.90;;;;;;5002275;28;20223;-87
2023/07/23 07:58:17;;;;;;;9.38;4.50;;;19.70;99.90;;;;;;5003163;28;20175;-85
2023/07/23 08:00:43;;;;;;;5.75;3.83;;;19.80;99.90;;;;;;5003333;28;20171;-85
2023/07/23 08:03:09;;;;;;;8.10;4.13;;;19.90;99.90;;;;;;5009129;28;20183;-85
2023/07/23 08:05:37;;;;;;;4.90;3.75;;;20.00;99.90;;;;;;5023867;28;20290;-88
2023/07/23 08:08:05;;;;;;;6.32;4.22;;;20.10;99.90;;;;;;5003620;28;20184;-87
2023/07/23 08:10:34;;;;;;;7.85;3.60;;;20.10;99.90;;;;;;4998118;28;20253;-86
2023/07/23 08:13:01;;;;;;;8.35;4.53;;;20.10;99.90;;;;;;5002474;28;20785;-87
2023/07/23 08:15:28;;;;;;;6.30;4.03;;;20.10;99.90;;;;;;5003558;28;20185;-86
2023/07/23 08:17:54;;;;;;;6.30;4.18;;;20.20;99.90;;;;;;4998850;28;20184;-86
2023/07/23 08:20:20;;;;;;;5.18;3.88;;;20.10;99.90;;;;;;4993368;28;20630;-87
2023/07/23 08:22:46;;;;;;;5.32;3.83;;;20.20;99.90;;;;;;4993678;28;20561;-85
2023/07/23 08:25:12;;;;;;;6.18;3.72;;;20.20;99.90;;;;;;5027524;28;20186;-85
2023/07/23 08:27:39;;;;;;;7.65;4.00;;;20.30;99.90;;;;;;5031925;28;20260;-84
2023/07/23 08:30:06;;;;;;;4.75;3.80;;;20.30;99.90;;;;;;5012035;28;20649;-86
2023/07/23 08:32:33;;;;;;;5.95;4.15;;;20.50;99.90;;;;;;5001772;28;20219;-86
2023/07/23 08:34:59;;;;;;;5.07;3.78;;;20.60;99.90;;;;;;5006060;28;20179;-87
2023/07/23 08:37:25;;;;;;;5.57;4.00;;;20.70;99.90;;;;;;5000948;28;20179;-86
2023/07/23 08:39:51;;;;;;;11.23;3.97;;;20.70;99.90;;;;;;4997944;28;20940;-85
2023/07/23 08:42:34;;;;;;;8.13;3.88;;;20.80;99.90;;;;;;5012420;28;20175;-85
2023/07/23 08:45:27;;;;;;;8.02;3.90;;;20.80;99.90;;;;;;5012869;28;20175;-86
2023/07/23 08:48:13;;;;;;;6.80;3.53;;;20.80;99.90;;;;;;5012028;28;20246;-86
2023/07/23 08:50:42;;;;;;;7.07;3.13;;;20.80;99.90;;;;;;5012777;28;20190;-87
2023/07/23 08:53:11;;;;;;;5.72;3.40;;;20.80;99.90;;;;;;5012959;28;20628;-86
2023/07/23 08:55:40;;;;;;;5.70;3.33;;;20.80;99.90;;;;;;5033764;28;20218;-88
2023/07/23 08:58:06;;;;;;;7.47;3.35;;;20.90;99.90;;;;;;5014449;28;20618;-86
2023/07/23 09:00:34;;;;;;;3.28;2.95;;;21.00;99.90;;;;;;5007125;28;20234;-87
2023/07/23 09:03:03;;;;;;;4.03;3.40;;;21.10;99.90;;;;;;5011296;28;20179;-88
2023/07/23 09:05:29;;;;;;;5.80;3.65;;;21.20;99.90;;;;;;5013965;28;20179;-85
2023/07/23 09:07:55;;;;;;;8.40;3.30;;;21.30;99.90;;;;;;5025168;28;20182;-87
2023/07/23 09:10:21;;;;;;;7.43;3.40;;;21.30;99.90;;;;;;5027414;28;20175;-86
2023/07/23 09:12:46;;;;;;;4.78;3.20;;;21.40;99.90;;;;;;5020017;28;20212;-85
2023/07/23 09:15:13;;;;;;;6.10;3.60;;;21.40;99.90;;;;;;5033448;28;20178;-90
2023/07/23 09:17:39;;;;;;;7.15;3.17;;;21.50;99.90;;;;;;5019257;28;20533;-86
2023/07/23 09:20:09;;;;;;;4.93;3.35;;;21.50;99.90;;;;;;5010915;28;20179;-87
2023/07/23 09:22:35;;;;;;;4.00;3.10;;;21.70;99.90;;;;;;5016099;28;20175;-86
2023/07/23 09:25:05;;;;;;;6.05;3.30;;;22.00;99.90;;;;;;5025374;28;20186;-88
2023/07/23 09:27:38;;;;;;;4.95;3.20;;;22.20;99.90;;;;;;5021321;28;20187;-86
2023/07/23 09:30:04;;;;;;;7.07;3.10;;;22.40;99.90;;;;;;5017377;28;20179;-86
2023/07/23 09:32:30;;;;;;;5.68;2.88;;;22.40;99.90;;;;;;5030572;28;20273;-85
2023/07/23 09:34:57;;;;;;;7.38;2.95;;;22.40;99.90;;;;;;5018650;28;20183;-85
2023/07/23 09:37:26;;;;;;;4.90;3.10;;;22.20;99.90;;;;;;5028695;28;20186;-88
2023/07/23 09:39:57;;;;;;;5.65;2.95;;;22.20;99.90;;;;;;5019497;28;20573;-87
2023/07/23 09:42:23;;;;;;;6.70;2.90;;;22.20;99.90;;;;;;5017067;28;20168;-88
2023/07/23 09:44:50;;;;;;;5.88;3.28;;;22.10;99.90;;;;;;5023792;28;20248;-88
2023/07/23 09:47:22;;;;;;;4.25;2.65;;;22.10;99.90;;;;;;5037016;28;20174;-88
2023/07/23 09:49:52;;;;;;;3.15;2.60;;;22.00;99.40;;;;;;5021795;28;20538;-89
2023/07/23 09:52:21;;;;;;;3.40;2.60;;;22.00;99.90;;;;;;5021737;28;20218;-87
2023/07/23 09:54:47;;;;;;;6.38;2.88;;;21.90;99.70;;;;;;5010272;28;20187;-91
2023/07/23 09:57:14;;;;;;;3.15;2.70;;;21.90;99.90;;;;;;5014090;28;20187;-87
2023/07/23 09:59:41;;;;;;;5.20;2.88;;;21.80;99.90;;;;;;5014328;28;20214;-89
2023/07/23 10:02:09;;;;;;;4.40;2.83;;;21.90;99.50;;;;;;5014687;28;20187;-87
2023/07/23 10:04:38;;;;;;;6.07;2.78;;;22.00;99.00;;;;;;5017534;28;20193;-90
2023/07/23 10:07:05;;;;;;;5.47;2.38;;;22.10;98.90;;;;;;5035105;28;20490;-93
2023/07/23 10:09:32;;;;;;;3.17;2.50;;;22.10;98.80;;;;;;5035448;28;20597;-89
2023/07/23 10:11:57;;;;;;;3.97;2.65;;;22.20;98.90;;;;;;5036090;28;20661;-87
2023/07/23 10:14:23;;;;;;;4.25;2.50;;;22.20;98.90;;;;;;5034881;28;20253;-90
2023/07/23 10:16:51;;;;;;;4.13;2.58;;;22.30;99.30;;;;;;5034859;28;20170;-89
2023/07/23 10:19:19;;;;;;;5.80;2.55;;;22.40;98.80;;;;;;5034747;28;20182;-89
2023/07/23 10:21:51;;;;;;;5.65;2.78;;;22.50;99.50;;;;;;5034602;28;20193;-90
2023/07/23 10:24:18;;;;;;;5.18;2.80;;;22.40;99.70;;;;;;5034511;28;20193;-92
2023/07/23 10:26:48;;;;;;;7.72;3.20;;;22.50;99.90;;;;;;5034409;28;20635;-92
2023/07/23 10:29:21;;;;;;;4.40;2.58;;;22.50;99.60;;;;;;5035085;28;20175;-88
2023/07/23 10:31:47;;;;;;;6.63;2.88;;;22.60;99.90;;;;;;5035735;28;20206;-87
2023/07/23 10:34:22;;;;;;;4.28;2.78;;;22.60;99.90;;;;;;5034404;28;20182;-88
2023/07/23 10:37:21;;;;;;;3.45;2.55;;;22.70;99.90;;;;;;5011476;28;20167;-88
2023/07/23 10:39:52;;;;;;;6.82;2.97;;;22.70;99.60;;;;;;4996354;28;20255;-87
2023/07/23 10:42:40;;;;;;;6.95;2.78;;;22.80;99.70;;;;;;4994932;28;20566;-88
2023/07/23 10:45:22;;;;;;;3.35;2.67;;;22.80;99.90;;;;;;5011370;28;20255;-88
2023/07/23 10:47:52;;;;;;;4.00;2.83;;;22.80;99.10;;;;;;5029752;28;20510;-87
2023/07/23 10:50:19;;;;;;;4.00;2.55;;;22.80;98.80;;;;;;5014241;28;20175;-85
2023/07/23 10:52:58;;;;;;;9.95;2.63;;;22.80;99.40;;;;;;5014031;28;20277;-88
2023/07/23 10:55:41;;;;;;;5.72;2.40;;;22.80;98.10;;;;;;5014079;28;20669;-89
2023/07/23 10:58:11;;;;;;;4.55;2.10;;;22.80;97.00;;;;;;5035525;28;20253;-94
2023/07/23 11:00:45;;;;;;;2.97;2.28;;;22.90;96.70;;;;;;5034333;28;20189;-89
2023/07/23 11:03:18;;;;;;;5.90;2.45;;;23.00;97.30;;;;;;5033743;28;20179;-88
2023/07/23 11:05:45;;;;;;;7.78;2.60;;;23.10;97.00;;;;;;5034079;28;20182;-88
2023/07/23 11:08:26;;;;;;;6.97;2.20;;;23.20;97.20;;;;;;5033812;28;20189;-88
2023/07/23 11:10:58;;;;;;;4.55;1.95;;;23.30;97.40;;;;;;5034156;28;20202;-94
2023/07/23 11:13:26;;;;;;;3.78;2.20;;;23.30;96.10;;;;;;5035001;28;20170;-88
2023/07/23 11:15:52;;;;;;;4.00;2.58;;;23.30;96.80;;;;;;5035410;28;20257;-88
2023/07/23 11:18:22;;;;;;;4.07;2.45;;;23.10;95.00;;;;;;5034095;28;20614;-91
2023/07/23 11:20:53;;;;;;;4.45;2.67;;;23.10;95.10;;;;;;5034018;28;20189;-91
2023/07/23 11:23:25;;;;;;;4.35;2.40;;;23.00;94.90;;;;;;5034769;28;20891;-90
2023/07/23 11:25:51;;;;;;;4.18;2.40;;;22.90;95.60;;;;;;5034907;28;20297;-87
2023/07/23 11:28:19;;;;;;;6.78;2.70;;;22.80;94.40;;;;;;5035405;28;20622;-88
2023/07/23 11:30:47;;;;;;;3.58;2.70;;;22.70;96.00;;;;;;5034291;28;20520;-90
2023/07/23 11:33:15;;;;;;;3.88;2.22;;;22.50;95.20;;;;;;5034293;28;20613;-89
2023/07/23 11:35:51;;;;;;;3.47;2.40;;;22.40;96.20;;;;;;5034175;28;20232;-89
2023/07/23 11:38:16;;;;;;;3.47;2.40;;;22.30;95.70;;;;;;5035551;28;20178;-91
2023/07/23 11:40:50;;;;;;;6.95;2.50;;;22.20;96.10;;;;;;5034952;28;20183;-91
2023/07/23 11:43:15;;;;;;;3.47;2.42;;;22.20;95.20;;;;;;5035067;28;20185;-95
2023/07/23 11:45:46;;;;;;;2.40;2.03;;;22.20;95.20;;;;;;5036054;28;20174;-89
2023/07/23 11:48:17;;;;;;;4.07;2.20;;;22.20;95.20;;;;;;5034305;28;20171;-90
2023/07/23 11:50:45;;;;;;;5.47;2.15;;;22.10;95.20;;;;;;5033986;28;20202;-95
2023/07/23 11:53:37;;;;;;;2.97;2.03;;;22.10;95.60;;;;;;5021127;28;20202;-90
2023/07/23 11:56:08;;;;;;;3.80;2.10;;;22.10;95.70;;;;;;5010923;28;20241;-89
2023/07/23 11:58:35;;;;;;;3.85;2.30;;;22.10;95.50;;;;;;5018834;28;20187;-92
2023/07/23 12:01:03;;;;;;;5.88;2.95;;;22.10;95.40;;;;;;5026560;28;20625;-88
2023/07/23 12:03:31;;;;;;;4.43;2.50;;;22.20;95.20;;;;;;5023461;28;20197;-92
2023/07/23 12:06:02;;;;;;;5.88;2.67;;;22.20;95.10;;;;;;5012930;28;20189;-91
2023/07/23 12:08:30;;;;;;;7.03;2.55;;;22.10;96.20;;;;;;5028505;28;20182;-91
2023/07/23 12:10:56;;;;;;;5.35;2.47;;;22.10;95.50;;;;;;5018776;28;20302;-89
2023/07/23 12:13:25;;;;;;;4.70;2.25;;;22.00;95.50;;;;;;5021657;28;20206;-92
2023/07/23 12:15:54;;;;;;;4.30;2.58;;;22.10;95.40;;;;;;5017069;28;20184;-88
2023/07/23 12:18:28;;;;;;;4.95;2.35;;;22.00;96.10;;;;;;5025036;28;20580;-91
2023/07/23 12:21:00;;;;;;;5.05;2.58;;;21.90;97.10;;;;;;5015051;28;20191;-92
2023/07/23 12:23:26;;;;;;;3.80;2.25;;;21.90;96.40;;;;;;5018889;28;20629;-91
2023/07/23 12:25:59;;;;;;;4.80;2.42;;;21.90;96.70;;;;;;5026210;28;20194;-90
2023/07/23 12:28:27;;;;;;;3.83;2.40;;;21.90;97.20;;;;;;5020700;28;20186;-91
2023/07/23 12:30:53;;;;;;;3.53;2.50;;;21.80;96.40;;;;;;5022567;28;20632;-88
2023/07/23 12:33:18;;;;;;;7.43;2.78;;;21.90;97.50;;;;;;5024331;28;20210;-90
2023/07/23 12:35:44;;;;;;;2.70;2.22;;;21.80;98.00;;;;;;5018730;28;20183;-88
2023/07/23 12:38:10;;;;;;;2.85;2.15;;;21.80;97.40;;;;;;5030008;28;20186;-89
2023/07/23 12:40:35;;;;;;;5.55;2.50;;;21.90;97.60;;;;;;5028223;28;20182;-90
2023/07/23 12:43:01;;;;;;;3.53;2.40;;;21.90;96.60;;;;;;5028185;28;20685;-87
2023/07/23 12:45:27;;;;;;;2.80;2.10;;;22.00;96.80;;;;;;5028080;28;20186;-92